New Kowloon, China
Current Conditions -  °F | °C
As of 11:00 PM on Monday 24 Nov 2014 (Local Time) from VHHH Reporting Station
Clear Clear  
Wind Chill: 77°   Ceiling: Unl
Heat Index: 79°   Visibility: 6mi
Dew Point: 64°   Wind: 9mph
Humidity: 65%   Direction: 110°ESE
Pressure: 29.97"   Gusts: NA
Location:  22.33°N, 114.15°E
Report Text: VHHH 241500Z 11008KT 080V140 CAVOK 25/18 Q1015 NOSIG
Loading
Personal Weather Stations






























Interactive Weather Map New forecast layout! Learn more

10-Day Weather Forecast

Advertisements
Track Severe Weather on mobile